sensor_id;sensor_type;location;lat;lon;timestamp;P1;durP1;ratioP1;P2;durP2;ratioP2
72517;SDS011;60540;51.178;6.738;2023-05-07T00:01:46;7.35;;;3.10;;
72517;SDS011;60540;51.178;6.738;2023-05-07T00:04:11;7.13;;;3.25;;
72517;SDS011;60540;51.178;6.738;2023-05-07T00:06:37;4.95;;;2.80;;
72517;SDS011;60540;51.178;6.738;2023-05-07T00:09:02;6.43;;;2.92;;
72517;SDS011;60540;51.178;6.738;2023-05-07T00:11:29;3.75;;;2.30;;
72517;SDS011;60540;51.178;6.738;2023-05-07T00:13:55;4.47;;;2.67;;
72517;SDS011;60540;51.178;6.738;2023-05-07T00:16:21;7.65;;;3.50;;
72517;SDS011;60540;51.178;6.738;2023-05-07T00:18:47;4.50;;;2.88;;
72517;SDS011;60540;51.178;6.738;2023-05-07T00:21:12;5.88;;;2.92;;
72517;SDS011;60540;51.178;6.738;2023-05-07T00:23:38;4.50;;;2.75;;
72517;SDS011;60540;51.178;6.738;2023-05-07T00:26:04;5.20;;;2.92;;
72517;SDS011;60540;51.178;6.738;2023-05-07T00:28:29;4.47;;;2.70;;
72517;SDS011;60540;51.178;6.738;2023-05-07T00:30:55;5.78;;;3.53;;
72517;SDS011;60540;51.178;6.738;2023-05-07T00:33:21;6.07;;;3.15;;
72517;SDS011;60540;51.178;6.738;2023-05-07T00:35:48;5.32;;;2.72;;
72517;SDS011;60540;51.178;6.738;2023-05-07T00:38:13;4.82;;;2.80;;
72517;SDS011;60540;51.178;6.738;2023-05-07T00:40:39;8.15;;;3.15;;
72517;SDS011;60540;51.178;6.738;2023-05-07T00:43:05;5.07;;;2.10;;
72517;SDS011;60540;51.178;6.738;2023-05-07T00:45:32;4.80;;;2.58;;
72517;SDS011;60540;51.178;6.738;2023-05-07T00:47:59;5.60;;;2.47;;
72517;SDS011;60540;51.178;6.738;2023-05-07T00:50:26;4.15;;;2.42;;
72517;SDS011;60540;51.178;6.738;2023-05-07T00:52:53;4.70;;;2.60;;
72517;SDS011;60540;51.178;6.738;2023-05-07T00:55:19;4.88;;;2.50;;
72517;SDS011;60540;51.178;6.738;2023-05-07T00:57:45;4.95;;;2.40;;
72517;SDS011;60540;51.178;6.738;2023-05-07T01:00:11;6.00;;;2.85;;
72517;SDS011;60540;51.178;6.738;2023-05-07T01:05:04;6.63;;;2.67;;
72517;SDS011;60540;51.178;6.738;2023-05-07T01:07:31;5.72;;;2.58;;
72517;SDS011;60540;51.178;6.738;2023-05-07T01:09:58;4.50;;;2.78;;
72517;SDS011;60540;51.178;6.738;2023-05-07T01:12:24;6.50;;;3.17;;
72517;SDS011;60540;51.178;6.738;2023-05-07T01:14:50;3.97;;;2.25;;
72517;SDS011;60540;51.178;6.738;2023-05-07T01:17:16;3.92;;;2.20;;
72517;SDS011;60540;51.178;6.738;2023-05-07T01:19:43;5.10;;;2.60;;
72517;SDS011;60540;51.178;6.738;2023-05-07T01:22:10;3.63;;;2.17;;
72517;SDS011;60540;51.178;6.738;2023-05-07T01:24:37;4.03;;;2.22;;
72517;SDS011;60540;51.178;6.738;2023-05-07T01:27:03;5.30;;;2.40;;
72517;SDS011;60540;51.178;6.738;2023-05-07T01:29:29;4.38;;;2.53;;
72517;SDS011;60540;51.178;6.738;2023-05-07T01:31:59;4.97;;;2.88;;
72517;SDS011;60540;51.178;6.738;2023-05-07T01:34:26;4.05;;;2.25;;
72517;SDS011;60540;51.178;6.738;2023-05-07T01:36:56;3.75;;;2.15;;
72517;SDS011;60540;51.178;6.738;2023-05-07T01:39:24;4.90;;;2.70;;
72517;SDS011;60540;51.178;6.738;2023-05-07T01:41:53;4.82;;;2.33;;
72517;SDS011;60540;51.178;6.738;2023-05-07T01:44:20;3.90;;;2.00;;
72517;SDS011;60540;51.178;6.738;2023-05-07T01:46:46;5.47;;;2.80;;
72517;SDS011;60540;51.178;6.738;2023-05-07T01:51:38;4.90;;;2.50;;
72517;SDS011;60540;51.178;6.738;2023-05-07T01:56:30;4.60;;;2.60;;
72517;SDS011;60540;51.178;6.738;2023-05-07T01:58:56;4.85;;;2.42;;
72517;SDS011;60540;51.178;6.738;2023-05-07T02:01:22;4.70;;;2.58;;
72517;SDS011;60540;51.178;6.738;2023-05-07T02:03:48;5.13;;;2.60;;
72517;SDS011;60540;51.178;6.738;2023-05-07T02:06:13;3.92;;;2.20;;
72517;SDS011;60540;51.178;6.738;2023-05-07T02:08:39;6.10;;;2.50;;
72517;SDS011;60540;51.178;6.738;2023-05-07T02:11:05;4.63;;;2.25;;
72517;SDS011;60540;51.178;6.738;2023-05-07T02:13:32;3.78;;;2.22;;
72517;SDS011;60540;51.178;6.738;2023-05-07T02:15:58;5.03;;;2.63;;
72517;SDS011;60540;51.178;6.738;2023-05-07T02:18:24;5.30;;;2.40;;
72517;SDS011;60540;51.178;6.738;2023-05-07T02:20:50;5.32;;;2.20;;
72517;SDS011;60540;51.178;6.738;2023-05-07T02:23:15;4.20;;;2.55;;
72517;SDS011;60540;51.178;6.738;2023-05-07T02:25:41;5.30;;;2.30;;
72517;SDS011;60540;51.178;6.738;2023-05-07T02:28:07;4.57;;;2.47;;
72517;SDS011;60540;51.178;6.738;2023-05-07T02:30:33;5.30;;;2.70;;
72517;SDS011;60540;51.178;6.738;2023-05-07T02:32:58;5.32;;;2.80;;
72517;SDS011;60540;51.178;6.738;2023-05-07T02:35:24;5.30;;;2.80;;
72517;SDS011;60540;51.178;6.738;2023-05-07T02:37:50;4.05;;;2.58;;
72517;SDS011;60540;51.178;6.738;2023-05-07T02:40:16;3.80;;;2.25;;
72517;SDS011;60540;51.178;6.738;2023-05-07T02:42:42;5.30;;;2.33;;
72517;SDS011;60540;51.178;6.738;2023-05-07T02:45:07;4.07;;;2.30;;
72517;SDS011;60540;51.178;6.738;2023-05-07T02:47:34;4.25;;;2.40;;
72517;SDS011;60540;51.178;6.738;2023-05-07T02:50:00;4.47;;;2.45;;
72517;SDS011;60540;51.178;6.738;2023-05-07T02:52:25;4.65;;;2.55;;
72517;SDS011;60540;51.178;6.738;2023-05-07T02:54:51;3.83;;;2.30;;
72517;SDS011;60540;51.178;6.738;2023-05-07T02:57:17;4.43;;;2.38;;
72517;SDS011;60540;51.178;6.738;2023-05-07T02:59:43;6.55;;;2.78;;
72517;SDS011;60540;51.178;6.738;2023-05-07T03:02:09;5.50;;;2.58;;
72517;SDS011;60540;51.178;6.738;2023-05-07T03:04:35;4.38;;;2.40;;
72517;SDS011;60540;51.178;6.738;2023-05-07T03:07:00;6.40;;;2.50;;
72517;SDS011;60540;51.178;6.738;2023-05-07T03:09:26;4.45;;;2.17;;
72517;SDS011;60540;51.178;6.738;2023-05-07T03:11:52;4.75;;;2.10;;
72517;SDS011;60540;51.178;6.738;2023-05-07T03:14:18;4.32;;;2.00;;
72517;SDS011;60540;51.178;6.738;2023-05-07T03:16:43;4.15;;;2.25;;
72517;SDS011;60540;51.178;6.738;2023-05-07T03:19:09;4.40;;;1.92;;
72517;SDS011;60540;51.178;6.738;2023-05-07T03:21:35;4.30;;;2.30;;
72517;SDS011;60540;51.178;6.738;2023-05-07T03:24:00;4.82;;;2.20;;
72517;SDS011;60540;51.178;6.738;2023-05-07T03:26:26;4.13;;;2.22;;
72517;SDS011;60540;51.178;6.738;2023-05-07T03:28:52;3.60;;;1.88;;
72517;SDS011;60540;51.178;6.738;2023-05-07T03:31:18;5.43;;;2.35;;
72517;SDS011;60540;51.178;6.738;2023-05-07T03:33:50;4.28;;;2.35;;
72517;SDS011;60540;51.178;6.738;2023-05-07T03:36:17;4.32;;;2.17;;
72517;SDS011;60540;51.178;6.738;2023-05-07T03:38:43;4.20;;;1.95;;
72517;SDS011;60540;51.178;6.738;2023-05-07T03:41:09;6.18;;;1.98;;
72517;SDS011;60540;51.178;6.738;2023-05-07T03:43:34;4.00;;;2.08;;
72517;SDS011;60540;51.178;6.738;2023-05-07T03:46:00;4.00;;;2.08;;
72517;SDS011;60540;51.178;6.738;2023-05-07T03:48:26;4.88;;;2.40;;
72517;SDS011;60540;51.178;6.738;2023-05-07T03:50:52;3.38;;;2.33;;
72517;SDS011;60540;51.178;6.738;2023-05-07T03:53:17;3.67;;;1.90;;
72517;SDS011;60540;51.178;6.738;2023-05-07T03:55:43;4.18;;;2.20;;
72517;SDS011;60540;51.178;6.738;2023-05-07T03:58:09;3.65;;;2.05;;
72517;SDS011;60540;51.178;6.738;2023-05-07T04:00:34;3.60;;;2.28;;
72517;SDS011;60540;51.178;6.738;2023-05-07T04:03:03;4.53;;;2.30;;
72517;SDS011;60540;51.178;6.738;2023-05-07T04:05:30;3.25;;;1.90;;
72517;SDS011;60540;51.178;6.738;2023-05-07T04:07:57;3.83;;;2.10;;
72517;SDS011;60540;51.178;6.738;2023-05-07T04:10:24;3.92;;;1.90;;
72517;SDS011;60540;51.178;6.738;2023-05-07T04:12:49;3.70;;;2.28;;
72517;SDS011;60540;51.178;6.738;2023-05-07T04:15:15;4.78;;;2.30;;
72517;SDS011;60540;51.178;6.738;2023-05-07T04:17:41;4.00;;;2.20;;
72517;SDS011;60540;51.178;6.738;2023-05-07T04:20:08;4.40;;;2.10;;
72517;SDS011;60540;51.178;6.738;2023-05-07T04:22:35;3.70;;;2.05;;
72517;SDS011;60540;51.178;6.738;2023-05-07T04:25:02;3.30;;;1.98;;
72517;SDS011;60540;51.178;6.738;2023-05-07T04:27:28;4.65;;;2.30;;
72517;SDS011;60540;51.178;6.738;2023-05-07T04:29:54;4.43;;;1.77;;
72517;SDS011;60540;51.178;6.738;2023-05-07T04:32:21;6.18;;;2.40;;
72517;SDS011;60540;51.178;6.738;2023-05-07T04:34:47;4.15;;;1.92;;
72517;SDS011;60540;51.178;6.738;2023-05-07T04:37:13;4.50;;;2.03;;
72517;SDS011;60540;51.178;6.738;2023-05-07T04:39:39;3.80;;;1.73;;
72517;SDS011;60540;51.178;6.738;2023-05-07T04:42:04;3.78;;;2.10;;
72517;SDS011;60540;51.178;6.738;2023-05-07T04:44:33;4.32;;;1.85;;
72517;SDS011;60540;51.178;6.738;2023-05-07T04:46:59;3.15;;;2.00;;
72517;SDS011;60540;51.178;6.738;2023-05-07T04:49:25;4.10;;;2.00;;
72517;SDS011;60540;51.178;6.738;2023-05-07T04:51:51;4.70;;;2.08;;
72517;SDS011;60540;51.178;6.738;2023-05-07T04:54:16;3.53;;;2.10;;
72517;SDS011;60540;51.178;6.738;2023-05-07T04:56:42;5.07;;;1.80;;
72517;SDS011;60540;51.178;6.738;2023-05-07T04:59:08;6.07;;;2.30;;
72517;SDS011;60540;51.178;6.738;2023-05-07T05:01:33;4.70;;;2.13;;
72517;SDS011;60540;51.178;6.738;2023-05-07T05:04:00;3.67;;;1.85;;
72517;SDS011;60540;51.178;6.738;2023-05-07T05:06:25;3.78;;;1.92;;
72517;SDS011;60540;51.178;6.738;2023-05-07T05:08:51;3.75;;;2.00;;
72517;SDS011;60540;51.178;6.738;2023-05-07T05:11:17;3.83;;;1.90;;
72517;SDS011;60540;51.178;6.738;2023-05-07T05:13:43;3.45;;;1.92;;
72517;SDS011;60540;51.178;6.738;2023-05-07T05:16:08;4.57;;;1.75;;
72517;SDS011;60540;51.178;6.738;2023-05-07T05:18:34;3.70;;;1.83;;
72517;SDS011;60540;51.178;6.738;2023-05-07T05:21:00;5.93;;;1.75;;
72517;SDS011;60540;51.178;6.738;2023-05-07T05:23:26;5.55;;;2.70;;
72517;SDS011;60540;51.178;6.738;2023-05-07T05:25:55;4.20;;;1.70;;
72517;SDS011;60540;51.178;6.738;2023-05-07T05:28:23;3.45;;;1.70;;
72517;SDS011;60540;51.178;6.738;2023-05-07T05:30:49;3.00;;;1.80;;
72517;SDS011;60540;51.178;6.738;2023-05-07T05:33:15;3.30;;;2.00;;
72517;SDS011;60540;51.178;6.738;2023-05-07T05:35:41;4.13;;;2.08;;
72517;SDS011;60540;51.178;6.738;2023-05-07T05:38:07;6.20;;;1.67;;
72517;SDS011;60540;51.178;6.738;2023-05-07T05:40:33;3.30;;;1.80;;
72517;SDS011;60540;51.178;6.738;2023-05-07T05:42:59;4.32;;;1.70;;
72517;SDS011;60540;51.178;6.738;2023-05-07T05:45:25;4.25;;;1.92;;
72517;SDS011;60540;51.178;6.738;2023-05-07T05:47:51;2.88;;;1.48;;
72517;SDS011;60540;51.178;6.738;2023-05-07T05:50:16;3.22;;;1.42;;
72517;SDS011;60540;51.178;6.738;2023-05-07T05:52:42;4.10;;;1.70;;
72517;SDS011;60540;51.178;6.738;2023-05-07T05:55:08;2.53;;;1.40;;
72517;SDS011;60540;51.178;6.738;2023-05-07T05:57:34;4.13;;;1.90;;
72517;SDS011;60540;51.178;6.738;2023-05-07T06:00:00;3.05;;;1.65;;
72517;SDS011;60540;51.178;6.738;2023-05-07T06:02:26;4.80;;;2.13;;
72517;SDS011;60540;51.178;6.738;2023-05-07T06:04:52;3.92;;;1.77;;
72517;SDS011;60540;51.178;6.738;2023-05-07T06:07:18;3.58;;;1.50;;
72517;SDS011;60540;51.178;6.738;2023-05-07T06:09:43;3.88;;;1.83;;
72517;SDS011;60540;51.178;6.738;2023-05-07T06:12:09;4.30;;;2.08;;
72517;SDS011;60540;51.178;6.738;2023-05-07T06:14:35;4.65;;;1.92;;
72517;SDS011;60540;51.178;6.738;2023-05-07T06:17:01;4.05;;;1.92;;
72517;SDS011;60540;51.178;6.738;2023-05-07T06:19:26;3.20;;;1.83;;
72517;SDS011;60540;51.178;6.738;2023-05-07T06:21:53;3.33;;;1.77;;
72517;SDS011;60540;51.178;6.738;2023-05-07T06:24:19;4.20;;;1.90;;
72517;SDS011;60540;51.178;6.738;2023-05-07T06:26:45;4.05;;;2.22;;
72517;SDS011;60540;51.178;6.738;2023-05-07T06:29:10;4.55;;;1.85;;
72517;SDS011;60540;51.178;6.738;2023-05-07T06:31:36;3.78;;;1.73;;
72517;SDS011;60540;51.178;6.738;2023-05-07T06:34:02;3.95;;;2.10;;
72517;SDS011;60540;51.178;6.738;2023-05-07T06:36:28;3.60;;;1.40;;
72517;SDS011;60540;51.178;6.738;2023-05-07T06:38:53;3.17;;;1.60;;
72517;SDS011;60540;51.178;6.738;2023-05-07T06:41:20;3.38;;;1.73;;
72517;SDS011;60540;51.178;6.738;2023-05-07T06:43:45;3.88;;;1.70;;
72517;SDS011;60540;51.178;6.738;2023-05-07T06:46:11;3.30;;;1.70;;
72517;SDS011;60540;51.178;6.738;2023-05-07T06:48:37;3.33;;;1.88;;
72517;SDS011;60540;51.178;6.738;2023-05-07T06:51:03;5.22;;;2.10;;
72517;SDS011;60540;51.178;6.738;2023-05-07T06:53:28;3.80;;;1.75;;
72517;SDS011;60540;51.178;6.738;2023-05-07T06:55:56;3.90;;;1.67;;
72517;SDS011;60540;51.178;6.738;2023-05-07T06:58:22;3.90;;;1.90;;
72517;SDS011;60540;51.178;6.738;2023-05-07T07:00:48;3.50;;;1.70;;
72517;SDS011;60540;51.178;6.738;2023-05-07T07:03:13;3.42;;;1.55;;
72517;SDS011;60540;51.178;6.738;2023-05-07T07:05:40;3.50;;;1.73;;
72517;SDS011;60540;51.178;6.738;2023-05-07T07:08:06;4.72;;;2.05;;
72517;SDS011;60540;51.178;6.738;2023-05-07T07:10:32;4.18;;;1.90;;
72517;SDS011;60540;51.178;6.738;2023-05-07T07:12:57;5.22;;;2.10;;
72517;SDS011;60540;51.178;6.738;2023-05-07T07:15:23;4.72;;;1.85;;
72517;SDS011;60540;51.178;6.738;2023-05-07T07:17:50;4.15;;;1.98;;
72517;SDS011;60540;51.178;6.738;2023-05-07T07:20:16;3.58;;;1.77;;
72517;SDS011;60540;51.178;6.738;2023-05-07T07:22:42;3.70;;;1.83;;
72517;SDS011;60540;51.178;6.738;2023-05-07T07:25:08;3.83;;;2.00;;
72517;SDS011;60540;51.178;6.738;2023-05-07T07:27:34;3.75;;;2.15;;
72517;SDS011;60540;51.178;6.738;2023-05-07T07:29:59;3.80;;;2.00;;
72517;SDS011;60540;51.178;6.738;2023-05-07T07:32:25;3.50;;;1.80;;
72517;SDS011;60540;51.178;6.738;2023-05-07T07:34:51;3.67;;;2.13;;
72517;SDS011;60540;51.178;6.738;2023-05-07T07:37:17;5.03;;;2.20;;
72517;SDS011;60540;51.178;6.738;2023-05-07T07:39:43;3.85;;;1.70;;
72517;SDS011;60540;51.178;6.738;2023-05-07T07:42:08;4.18;;;2.00;;
72517;SDS011;60540;51.178;6.738;2023-05-07T07:44:34;4.03;;;1.80;;
72517;SDS011;60540;51.178;6.738;2023-05-07T07:47:00;5.38;;;2.67;;
72517;SDS011;60540;51.178;6.738;2023-05-07T07:49:26;6.63;;;2.83;;
72517;SDS011;60540;51.178;6.738;2023-05-07T07:51:52;4.75;;;2.10;;
72517;SDS011;60540;51.178;6.738;2023-05-07T07:54:17;5.68;;;2.50;;
72517;SDS011;60540;51.178;6.738;2023-05-07T07:56:43;4.53;;;2.13;;
72517;SDS011;60540;51.178;6.738;2023-05-07T07:59:09;4.72;;;2.08;;
72517;SDS011;60540;51.178;6.738;2023-05-07T08:01:35;5.15;;;2.35;;
72517;SDS011;60540;51.178;6.738;2023-05-07T08:04:00;5.55;;;2.50;;
72517;SDS011;60540;51.178;6.738;2023-05-07T08:06:28;4.10;;;2.28;;
72517;SDS011;60540;51.178;6.738;2023-05-07T08:08:54;4.45;;;2.30;;
72517;SDS011;60540;51.178;6.738;2023-05-07T08:11:20;5.97;;;2.40;;
72517;SDS011;60540;51.178;6.738;2023-05-07T08:13:46;4.68;;;2.28;;
72517;SDS011;60540;51.178;6.738;2023-05-07T08:16:12;5.07;;;1.95;;
72517;SDS011;60540;51.178;6.738;2023-05-07T08:18:38;5.00;;;2.45;;
72517;SDS011;60540;51.178;6.738;2023-05-07T08:21:04;5.72;;;2.42;;
72517;SDS011;60540;51.178;6.738;2023-05-07T08:23:30;6.35;;;3.38;;
72517;SDS011;60540;51.178;6.738;2023-05-07T08:25:56;3.80;;;2.28;;
72517;SDS011;60540;51.178;6.738;2023-05-07T08:28:22;5.05;;;2.70;;
72517;SDS011;60540;51.178;6.738;2023-05-07T08:30:49;8.02;;;3.58;;
72517;SDS011;60540;51.178;6.738;2023-05-07T08:33:15;5.55;;;2.90;;
72517;SDS011;60540;51.178;6.738;2023-05-07T08:35:41;5.13;;;3.15;;
72517;SDS011;60540;51.178;6.738;2023-05-07T08:38:07;7.40;;;3.47;;
72517;SDS011;60540;51.178;6.738;2023-05-07T08:40:35;5.15;;;2.72;;
72517;SDS011;60540;51.178;6.738;2023-05-07T08:43:04;7.18;;;3.05;;
72517;SDS011;60540;51.178;6.738;2023-05-07T08:45:30;5.72;;;2.78;;
72517;SDS011;60540;51.178;6.738;2023-05-07T08:47:58;4.55;;;2.92;;
72517;SDS011;60540;51.178;6.738;2023-05-07T08:50:25;4.78;;;2.80;;
72517;SDS011;60540;51.178;6.738;2023-05-07T08:52:51;5.70;;;2.80;;
72517;SDS011;60540;51.178;6.738;2023-05-07T08:55:16;6.00;;;2.58;;
72517;SDS011;60540;51.178;6.738;2023-05-07T08:57:42;4.55;;;2.47;;
72517;SDS011;60540;51.178;6.738;2023-05-07T09:00:08;5.07;;;2.70;;
72517;SDS011;60540;51.178;6.738;2023-05-07T09:02:35;5.43;;;2.75;;
72517;SDS011;60540;51.178;6.738;2023-05-07T09:05:01;6.93;;;3.50;;
72517;SDS011;60540;51.178;6.738;2023-05-07T09:07:27;5.13;;;2.97;;
72517;SDS011;60540;51.178;6.738;2023-05-07T09:09:53;4.40;;;2.30;;
72517;SDS011;60540;51.178;6.738;2023-05-07T09:12:20;7.45;;;2.95;;
72517;SDS011;60540;51.178;6.738;2023-05-07T09:14:46;4.57;;;2.05;;
72517;SDS011;60540;51.178;6.738;2023-05-07T09:17:12;3.40;;;1.65;;
72517;SDS011;60540;51.178;6.738;2023-05-07T09:19:38;6.30;;;2.65;;
72517;SDS011;60540;51.178;6.738;2023-05-07T09:22:05;4.07;;;2.20;;
72517;SDS011;60540;51.178;6.738;2023-05-07T09:24:32;3.50;;;2.08;;
72517;SDS011;60540;51.178;6.738;2023-05-07T09:27:06;4.60;;;2.35;;
72517;SDS011;60540;51.178;6.738;2023-05-07T09:29:33;5.60;;;2.22;;
72517;SDS011;60540;51.178;6.738;2023-05-07T09:32:07;5.22;;;1.90;;
72517;SDS011;60540;51.178;6.738;2023-05-07T09:34:33;4.82;;;2.47;;
72517;SDS011;60540;51.178;6.738;2023-05-07T09:39:45;4.95;;;1.92;;
72517;SDS011;60540;51.178;6.738;2023-05-07T09:42:12;4.80;;;2.55;;
72517;SDS011;60540;51.178;6.738;2023-05-07T09:44:40;4.25;;;2.10;;
72517;SDS011;60540;51.178;6.738;2023-05-07T09:47:07;3.95;;;2.13;;
72517;SDS011;60540;51.178;6.738;2023-05-07T09:52:00;5.05;;;1.85;;
72517;SDS011;60540;51.178;6.738;2023-05-07T09:56:54;4.18;;;2.17;;
72517;SDS011;60540;51.178;6.738;2023-05-07T09:59:20;3.35;;;2.15;;
72517;SDS011;60540;51.178;6.738;2023-05-07T10:01:46;3.35;;;1.85;;
72517;SDS011;60540;51.178;6.738;2023-05-07T10:04:12;5.18;;;1.98;;
72517;SDS011;60540;51.178;6.738;2023-05-07T10:06:38;7.35;;;2.80;;
72517;SDS011;60540;51.178;6.738;2023-05-07T10:09:04;4.15;;;2.10;;
72517;SDS011;60540;51.178;6.738;2023-05-07T10:11:34;4.53;;;1.95;;
72517;SDS011;60540;51.178;6.738;2023-05-07T10:14:03;4.30;;;2.00;;
72517;SDS011;60540;51.178;6.738;2023-05-07T10:16:31;3.47;;;1.80;;
72517;SDS011;60540;51.178;6.738;2023-05-07T10:19:04;3.30;;;1.80;;
72517;SDS011;60540;51.178;6.738;2023-05-07T10:21:30;4.38;;;1.85;;
72517;SDS011;60540;51.178;6.738;2023-05-07T10:24:05;4.93;;;2.10;;
72517;SDS011;60540;51.178;6.738;2023-05-07T10:29:07;3.65;;;1.73;;
72517;SDS011;60540;51.178;6.738;2023-05-07T10:31:55;5.07;;;2.00;;
72517;SDS011;60540;51.178;6.738;2023-05-07T10:34:55;4.03;;;1.60;;
72517;SDS011;60540;51.178;6.738;2023-05-07T10:37:22;4.20;;;1.58;;
72517;SDS011;60540;51.178;6.738;2023-05-07T10:39:48;3.67;;;1.40;;
72517;SDS011;60540;51.178;6.738;2023-05-07T10:42:14;3.83;;;1.38;;
72517;SDS011;60540;51.178;6.738;2023-05-07T10:44:40;2.67;;;1.33;;
72517;SDS011;60540;51.178;6.738;2023-05-07T10:47:12;3.78;;;1.58;;
72517;SDS011;60540;51.178;6.738;2023-05-07T10:52:15;2.80;;;1.23;;
72517;SDS011;60540;51.178;6.738;2023-05-07T10:54:42;1.98;;;1.00;;
72517;SDS011;60540;51.178;6.738;2023-05-07T10:59:56;2.75;;;1.13;;
72517;SDS011;60540;51.178;6.738;2023-05-07T11:02:21;2.40;;;1.30;;
72517;SDS011;60540;51.178;6.738;2023-05-07T11:07:47;2.38;;;1.40;;
72517;SDS011;60540;51.178;6.738;2023-05-07T11:10:20;2.60;;;1.30;;
72517;SDS011;60540;51.178;6.738;2023-05-07T11:12:46;2.42;;;1.25;;
72517;SDS011;60540;51.178;6.738;2023-05-07T11:15:13;4.03;;;1.30;;
72517;SDS011;60540;51.178;6.738;2023-05-07T11:17:58;2.47;;;1.20;;
72517;SDS011;60540;51.178;6.738;2023-05-07T11:23:54;2.63;;;1.20;;
72517;SDS011;60540;51.178;6.738;2023-05-07T11:28:50;2.97;;;1.40;;
72517;SDS011;60540;51.178;6.738;2023-05-07T11:31:20;4.28;;;1.52;;
72517;SDS011;60540;51.178;6.738;2023-05-07T11:33:47;3.47;;;1.23;;
72517;SDS011;60540;51.178;6.738;2023-05-07T11:36:12;2.13;;;1.10;;
72517;SDS011;60540;51.178;6.738;2023-05-07T11:38:38;1.75;;;1.00;;
72517;SDS011;60540;51.178;6.738;2023-05-07T11:41:04;3.28;;;1.30;;
72517;SDS011;60540;51.178;6.738;2023-05-07T11:43:31;3.20;;;1.15;;
72517;SDS011;60540;51.178;6.738;2023-05-07T11:46:11;4.03;;;1.27;;
72517;SDS011;60540;51.178;6.738;2023-05-07T11:48:37;3.45;;;1.08;;
72517;SDS011;60540;51.178;6.738;2023-05-07T11:53:37;2.70;;;1.17;;
72517;SDS011;60540;51.178;6.738;2023-05-07T11:56:07;3.28;;;1.30;;
72517;SDS011;60540;51.178;6.738;2023-05-07T11:58:33;2.90;;;1.33;;
72517;SDS011;60540;51.178;6.738;2023-05-07T12:00:59;3.03;;;1.25;;
72517;SDS011;60540;51.178;6.738;2023-05-07T12:03:25;2.28;;;1.23;;
72517;SDS011;60540;51.178;6.738;2023-05-07T12:05:50;3.30;;;1.40;;
72517;SDS011;60540;51.178;6.738;2023-05-07T12:08:17;4.13;;;1.25;;
72517;SDS011;60540;51.178;6.738;2023-05-07T12:10:43;3.00;;;1.27;;
72517;SDS011;60540;51.178;6.738;2023-05-07T12:13:19;3.53;;;1.40;;
72517;SDS011;60540;51.178;6.738;2023-05-07T12:15:51;3.60;;;1.48;;
72517;SDS011;60540;51.178;6.738;2023-05-07T12:20:47;3.85;;;1.58;;
72517;SDS011;60540;51.178;6.738;2023-05-07T12:23:13;4.88;;;2.17;;
72517;SDS011;60540;51.178;6.738;2023-05-07T12:25:40;4.80;;;2.03;;
72517;SDS011;60540;51.178;6.738;2023-05-07T12:28:13;2.75;;;1.55;;
72517;SDS011;60540;51.178;6.738;2023-05-07T12:30:40;3.72;;;1.55;;
72517;SDS011;60540;51.178;6.738;2023-05-07T12:33:07;3.30;;;1.60;;
72517;SDS011;60540;51.178;6.738;2023-05-07T12:35:37;1.65;;;1.02;;
72517;SDS011;60540;51.178;6.738;2023-05-07T12:38:07;3.38;;;1.48;;
72517;SDS011;60540;51.178;6.738;2023-05-07T12:40:41;2.03;;;1.13;;
72517;SDS011;60540;51.178;6.738;2023-05-07T12:43:14;3.95;;;1.25;;
72517;SDS011;60540;51.178;6.738;2023-05-07T12:45:42;2.75;;;1.40;;
72517;SDS011;60540;51.178;6.738;2023-05-07T12:48:09;3.22;;;1.50;;
72517;SDS011;60540;51.178;6.738;2023-05-07T12:50:35;3.72;;;1.35;;
72517;SDS011;60540;51.178;6.738;2023-05-07T12:53:03;3.22;;;1.35;;
72517;SDS011;60540;51.178;6.738;2023-05-07T12:55:31;4.70;;;1.75;;
72517;SDS011;60540;51.178;6.738;2023-05-07T12:57:57;3.28;;;1.48;;
72517;SDS011;60540;51.178;6.738;2023-05-07T13:00:38;4.53;;;1.45;;
72517;SDS011;60540;51.178;6.738;2023-05-07T13:05:30;2.72;;;1.13;;
72517;SDS011;60540;51.178;6.738;2023-05-07T13:07:57;3.30;;;1.30;;
72517;SDS011;60540;51.178;6.738;2023-05-07T13:10:23;2.88;;;1.25;;
72517;SDS011;60540;51.178;6.738;2023-05-07T13:12:49;2.80;;;1.17;;
72517;SDS011;60540;51.178;6.738;2023-05-07T13:15:15;2.47;;;1.15;;
72517;SDS011;60540;51.178;6.738;2023-05-07T13:17:42;5.70;;;1.60;;
72517;SDS011;60540;51.178;6.738;2023-05-07T13:20:08;2.63;;;1.27;;
72517;SDS011;60540;51.178;6.738;2023-05-07T13:22:35;3.00;;;1.20;;
72517;SDS011;60540;51.178;6.738;2023-05-07T13:25:01;2.63;;;1.13;;
72517;SDS011;60540;51.178;6.738;2023-05-07T13:27:27;2.97;;;1.27;;
72517;SDS011;60540;51.178;6.738;2023-05-07T13:29:52;4.82;;;1.42;;
72517;SDS011;60540;51.178;6.738;2023-05-07T13:32:18;3.70;;;1.38;;
72517;SDS011;60540;51.178;6.738;2023-05-07T13:34:44;2.72;;;1.20;;
72517;SDS011;60540;51.178;6.738;2023-05-07T13:37:10;3.28;;;1.38;;
72517;SDS011;60540;51.178;6.738;2023-05-07T13:39:36;4.10;;;1.38;;
72517;SDS011;60540;51.178;6.738;2023-05-07T13:42:02;2.67;;;1.20;;
72517;SDS011;60540;51.178;6.738;2023-05-07T13:44:27;2.97;;;1.13;;
72517;SDS011;60540;51.178;6.738;2023-05-07T13:46:53;4.38;;;1.35;;
72517;SDS011;60540;51.178;6.738;2023-05-07T13:49:19;3.80;;;1.52;;
72517;SDS011;60540;51.178;6.738;2023-05-07T13:51:45;3.92;;;1.52;;
72517;SDS011;60540;51.178;6.738;2023-05-07T13:54:10;4.85;;;1.65;;
72517;SDS011;60540;51.178;6.738;2023-05-07T13:56:36;5.00;;;1.80;;
72517;SDS011;60540;51.178;6.738;2023-05-07T13:59:02;4.00;;;2.13;;
72517;SDS011;60540;51.178;6.738;2023-05-07T14:01:28;7.70;;;5.40;;
72517;SDS011;60540;51.178;6.738;2023-05-07T14:03:53;5.40;;;3.30;;
72517;SDS011;60540;51.178;6.738;2023-05-07T14:06:19;2.83;;;1.52;;
72517;SDS011;60540;51.178;6.738;2023-05-07T14:08:45;3.20;;;1.52;;
72517;SDS011;60540;51.178;6.738;2023-05-07T14:11:10;3.72;;;1.45;;
72517;SDS011;60540;51.178;6.738;2023-05-07T14:13:36;5.13;;;1.90;;
72517;SDS011;60540;51.178;6.738;2023-05-07T14:16:03;3.80;;;1.80;;
72517;SDS011;60540;51.178;6.738;2023-05-07T14:18:29;3.58;;;2.03;;
72517;SDS011;60540;51.178;6.738;2023-05-07T14:20:55;4.32;;;2.00;;
72517;SDS011;60540;51.178;6.738;2023-05-07T14:23:21;3.67;;;1.83;;
72517;SDS011;60540;51.178;6.738;2023-05-07T14:25:52;4.85;;;1.83;;
72517;SDS011;60540;51.178;6.738;2023-05-07T14:28:18;6.88;;;2.15;;
72517;SDS011;60540;51.178;6.738;2023-05-07T14:30:44;4.05;;;2.00;;
72517;SDS011;60540;51.178;6.738;2023-05-07T14:33:10;3.83;;;2.00;;
72517;SDS011;60540;51.178;6.738;2023-05-07T14:35:36;4.18;;;2.40;;
72517;SDS011;60540;51.178;6.738;2023-05-07T14:38:01;5.03;;;2.45;;
72517;SDS011;60540;51.178;6.738;2023-05-07T14:40:27;5.63;;;2.50;;
72517;SDS011;60540;51.178;6.738;2023-05-07T14:42:53;5.00;;;1.98;;
72517;SDS011;60540;51.178;6.738;2023-05-07T14:45:20;5.75;;;2.55;;
72517;SDS011;60540;51.178;6.738;2023-05-07T14:47:46;5.30;;;2.55;;
72517;SDS011;60540;51.178;6.738;2023-05-07T14:50:12;5.40;;;2.47;;
72517;SDS011;60540;51.178;6.738;2023-05-07T14:52:37;3.95;;;2.33;;
72517;SDS011;60540;51.178;6.738;2023-05-07T14:55:03;4.75;;;2.72;;
72517;SDS011;60540;51.178;6.738;2023-05-07T14:59:55;5.03;;;2.45;;
72517;SDS011;60540;51.178;6.738;2023-05-07T15:02:21;5.03;;;2.35;;
72517;SDS011;60540;51.178;6.738;2023-05-07T15:04:47;4.55;;;2.38;;
72517;SDS011;60540;51.178;6.738;2023-05-07T15:07:14;8.15;;;2.97;;
72517;SDS011;60540;51.178;6.738;2023-05-07T15:09:43;4.55;;;2.17;;
72517;SDS011;60540;51.178;6.738;2023-05-07T15:12:08;4.35;;;2.47;;
72517;SDS011;60540;51.178;6.738;2023-05-07T15:14:34;3.88;;;2.15;;
72517;SDS011;60540;51.178;6.738;2023-05-07T15:17:00;6.60;;;2.72;;
72517;SDS011;60540;51.178;6.738;2023-05-07T15:19:26;3.95;;;2.25;;
72517;SDS011;60540;51.178;6.738;2023-05-07T15:21:54;4.70;;;2.33;;
72517;SDS011;60540;51.178;6.738;2023-05-07T15:24:23;5.13;;;2.60;;
72517;SDS011;60540;51.178;6.738;2023-05-07T15:26:52;4.03;;;2.38;;